sensor_id;sensor_type;location;lat;lon;timestamp;P1;durP1;ratioP1;P2;durP2;ratioP2
39094;SDS011;24840;47.508;19.376;2023-04-03T00:01:09;3.72;;;2.50;;
39094;SDS011;24840;47.508;19.376;2023-04-03T00:03:35;3.38;;;2.83;;
39094;SDS011;24840;47.508;19.376;2023-04-03T00:06:02;4.85;;;3.53;;
39094;SDS011;24840;47.508;19.376;2023-04-03T00:08:28;4.47;;;3.65;;
39094;SDS011;24840;47.508;19.376;2023-04-03T00:10:56;4.70;;;3.47;;
39094;SDS011;24840;47.508;19.376;2023-04-03T00:13:22;4.15;;;3.75;;
39094;SDS011;24840;47.508;19.376;2023-04-03T00:15:48;3.65;;;3.35;;
39094;SDS011;24840;47.508;19.376;2023-04-03T00:18:14;6.00;;;3.92;;
39094;SDS011;24840;47.508;19.376;2023-04-03T00:20:40;5.55;;;3.80;;
39094;SDS011;24840;47.508;19.376;2023-04-03T00:23:06;4.63;;;3.78;;
39094;SDS011;24840;47.508;19.376;2023-04-03T00:25:32;5.93;;;4.30;;
39094;SDS011;24840;47.508;19.376;2023-04-03T00:27:58;5.28;;;4.45;;
39094;SDS011;24840;47.508;19.376;2023-04-03T00:30:23;5.72;;;4.15;;
39094;SDS011;24840;47.508;19.376;2023-04-03T00:32:50;5.70;;;4.28;;
39094;SDS011;24840;47.508;19.376;2023-04-03T00:35:16;5.97;;;4.57;;
39094;SDS011;24840;47.508;19.376;2023-04-03T00:37:44;5.28;;;4.35;;
39094;SDS011;24840;47.508;19.376;2023-04-03T00:40:11;6.57;;;4.70;;
39094;SDS011;24840;47.508;19.376;2023-04-03T00:42:39;5.07;;;4.55;;
39094;SDS011;24840;47.508;19.376;2023-04-03T00:47:50;6.03;;;4.88;;
39094;SDS011;24840;47.508;19.376;2023-04-03T00:50:16;5.30;;;4.07;;
39094;SDS011;24840;47.508;19.376;2023-04-03T00:52:42;7.30;;;4.65;;
39094;SDS011;24840;47.508;19.376;2023-04-03T00:55:11;5.10;;;3.97;;
39094;SDS011;24840;47.508;19.376;2023-04-03T00:57:39;4.75;;;3.67;;
39094;SDS011;24840;47.508;19.376;2023-04-03T01:00:08;5.70;;;4.20;;
39094;SDS011;24840;47.508;19.376;2023-04-03T01:02:37;6.47;;;4.82;;
39094;SDS011;24840;47.508;19.376;2023-04-03T01:05:06;4.32;;;3.88;;
39094;SDS011;24840;47.508;19.376;2023-04-03T01:07:32;5.23;;;4.40;;
39094;SDS011;24840;47.508;19.376;2023-04-03T01:10:01;5.60;;;4.38;;
39094;SDS011;24840;47.508;19.376;2023-04-03T01:12:31;5.88;;;3.97;;
39094;SDS011;24840;47.508;19.376;2023-04-03T01:15:00;4.90;;;4.20;;
39094;SDS011;24840;47.508;19.376;2023-04-03T01:25:36;6.95;;;3.85;;
39094;SDS011;24840;47.508;19.376;2023-04-03T01:28:02;5.23;;;4.00;;
39094;SDS011;24840;47.508;19.376;2023-04-03T01:30:34;6.27;;;3.87;;
39094;SDS011;24840;47.508;19.376;2023-04-03T01:33:04;5.70;;;4.20;;
39094;SDS011;24840;47.508;19.376;2023-04-03T01:35:30;6.93;;;4.30;;
39094;SDS011;24840;47.508;19.376;2023-04-03T01:37:56;5.30;;;4.30;;
39094;SDS011;24840;47.508;19.376;2023-04-03T01:40:21;4.30;;;3.65;;
39094;SDS011;24840;47.508;19.376;2023-04-03T01:42:47;4.50;;;3.93;;
39094;SDS011;24840;47.508;19.376;2023-04-03T01:45:13;4.27;;;3.87;;
39094;SDS011;24840;47.508;19.376;2023-04-03T01:47:38;6.20;;;4.50;;
39094;SDS011;24840;47.508;19.376;2023-04-03T01:50:04;5.67;;;4.50;;
39094;SDS011;24840;47.508;19.376;2023-04-03T01:52:30;4.67;;;4.23;;
39094;SDS011;24840;47.508;19.376;2023-04-03T01:54:56;5.33;;;4.53;;
39094;SDS011;24840;47.508;19.376;2023-04-03T01:57:22;6.00;;;4.50;;
39094;SDS011;24840;47.508;19.376;2023-04-03T01:59:47;5.40;;;4.27;;
39094;SDS011;24840;47.508;19.376;2023-04-03T02:02:13;4.63;;;4.23;;
39094;SDS011;24840;47.508;19.376;2023-04-03T02:04:40;5.47;;;4.47;;
39094;SDS011;24840;47.508;19.376;2023-04-03T02:07:06;5.20;;;4.23;;
39094;SDS011;24840;47.508;19.376;2023-04-03T02:09:32;4.00;;;3.60;;
39094;SDS011;24840;47.508;19.376;2023-04-03T02:11:57;5.53;;;4.50;;
39094;SDS011;24840;47.508;19.376;2023-04-03T02:14:23;6.57;;;5.10;;
39094;SDS011;24840;47.508;19.376;2023-04-03T02:16:49;6.47;;;4.60;;
39094;SDS011;24840;47.508;19.376;2023-04-03T02:19:15;4.70;;;4.17;;
39094;SDS011;24840;47.508;19.376;2023-04-03T02:21:41;5.17;;;4.40;;
39094;SDS011;24840;47.508;19.376;2023-04-03T02:24:07;4.97;;;4.47;;
39094;SDS011;24840;47.508;19.376;2023-04-03T02:26:33;5.87;;;4.83;;
39094;SDS011;24840;47.508;19.376;2023-04-03T02:28:58;5.20;;;4.70;;
39094;SDS011;24840;47.508;19.376;2023-04-03T02:31:24;4.73;;;4.23;;
39094;SDS011;24840;47.508;19.376;2023-04-03T02:33:50;8.37;;;4.90;;
39094;SDS011;24840;47.508;19.376;2023-04-03T02:36:16;5.30;;;4.47;;
39094;SDS011;24840;47.508;19.376;2023-04-03T02:38:42;5.43;;;4.87;;
39094;SDS011;24840;47.508;19.376;2023-04-03T02:41:09;4.77;;;4.27;;
39094;SDS011;24840;47.508;19.376;2023-04-03T02:43:36;4.43;;;4.03;;
39094;SDS011;24840;47.508;19.376;2023-04-03T02:46:03;4.93;;;4.43;;
39094;SDS011;24840;47.508;19.376;2023-04-03T02:48:30;4.80;;;4.30;;
39094;SDS011;24840;47.508;19.376;2023-04-03T02:50:57;5.57;;;4.67;;
39094;SDS011;24840;47.508;19.376;2023-04-03T02:53:22;5.57;;;5.00;;
39094;SDS011;24840;47.508;19.376;2023-04-03T02:55:48;7.60;;;4.47;;
39094;SDS011;24840;47.508;19.376;2023-04-03T02:58:14;5.20;;;4.70;;
39094;SDS011;24840;47.508;19.376;2023-04-03T03:00:40;6.80;;;4.57;;
39094;SDS011;24840;47.508;19.376;2023-04-03T03:03:06;6.37;;;4.97;;
39094;SDS011;24840;47.508;19.376;2023-04-03T03:05:32;6.93;;;5.27;;
39094;SDS011;24840;47.508;19.376;2023-04-03T03:07:58;5.90;;;4.83;;
39094;SDS011;24840;47.508;19.376;2023-04-03T03:10:24;7.07;;;5.13;;
39094;SDS011;24840;47.508;19.376;2023-04-03T03:12:50;5.73;;;5.13;;
39094;SDS011;24840;47.508;19.376;2023-04-03T03:15:16;6.07;;;4.20;;
39094;SDS011;24840;47.508;19.376;2023-04-03T03:17:42;5.50;;;4.97;;
39094;SDS011;24840;47.508;19.376;2023-04-03T03:20:08;6.87;;;4.47;;
39094;SDS011;24840;47.508;19.376;2023-04-03T03:22:34;6.20;;;5.37;;
39094;SDS011;24840;47.508;19.376;2023-04-03T03:25:01;5.37;;;4.03;;
39094;SDS011;24840;47.508;19.376;2023-04-03T03:27:27;5.37;;;4.37;;
39094;SDS011;24840;47.508;19.376;2023-04-03T03:29:53;5.73;;;5.13;;
39094;SDS011;24840;47.508;19.376;2023-04-03T03:32:18;6.40;;;4.90;;
39094;SDS011;24840;47.508;19.376;2023-04-03T03:34:44;6.20;;;5.07;;
39094;SDS011;24840;47.508;19.376;2023-04-03T03:37:10;5.80;;;4.70;;
39094;SDS011;24840;47.508;19.376;2023-04-03T03:39:36;5.87;;;5.27;;
39094;SDS011;24840;47.508;19.376;2023-04-03T03:42:01;5.43;;;4.73;;
39094;SDS011;24840;47.508;19.376;2023-04-03T03:44:27;6.20;;;5.10;;
39094;SDS011;24840;47.508;19.376;2023-04-03T03:46:54;6.17;;;5.07;;
39094;SDS011;24840;47.508;19.376;2023-04-03T03:49:20;4.90;;;4.17;;
39094;SDS011;24840;47.508;19.376;2023-04-03T03:51:46;10.37;;;5.00;;
39094;SDS011;24840;47.508;19.376;2023-04-03T03:54:12;6.23;;;5.10;;
39094;SDS011;24840;47.508;19.376;2023-04-03T03:56:37;7.37;;;5.37;;
39094;SDS011;24840;47.508;19.376;2023-04-03T03:59:03;7.13;;;4.97;;
39094;SDS011;24840;47.508;19.376;2023-04-03T04:01:29;7.63;;;4.83;;
39094;SDS011;24840;47.508;19.376;2023-04-03T04:03:55;5.13;;;4.37;;
39094;SDS011;24840;47.508;19.376;2023-04-03T04:06:21;5.37;;;4.70;;
39094;SDS011;24840;47.508;19.376;2023-04-03T04:08:47;6.40;;;5.77;;
39094;SDS011;24840;47.508;19.376;2023-04-03T04:11:13;5.93;;;4.93;;
39094;SDS011;24840;47.508;19.376;2023-04-03T04:13:39;5.77;;;4.77;;
39094;SDS011;24840;47.508;19.376;2023-04-03T04:16:05;5.67;;;4.40;;
39094;SDS011;24840;47.508;19.376;2023-04-03T04:18:32;5.13;;;4.60;;
39094;SDS011;24840;47.508;19.376;2023-04-03T04:20:58;5.33;;;4.77;;
39094;SDS011;24840;47.508;19.376;2023-04-03T04:23:24;5.43;;;4.70;;
39094;SDS011;24840;47.508;19.376;2023-04-03T04:25:50;5.47;;;4.60;;
39094;SDS011;24840;47.508;19.376;2023-04-03T04:28:16;5.13;;;4.37;;
39094;SDS011;24840;47.508;19.376;2023-04-03T04:30:43;4.47;;;4.07;;
39094;SDS011;24840;47.508;19.376;2023-04-03T04:33:08;5.27;;;4.00;;
39094;SDS011;24840;47.508;19.376;2023-04-03T04:35:35;4.60;;;4.20;;
39094;SDS011;24840;47.508;19.376;2023-04-03T04:38:01;5.70;;;5.17;;
39094;SDS011;24840;47.508;19.376;2023-04-03T04:40:27;4.90;;;4.23;;
39094;SDS011;24840;47.508;19.376;2023-04-03T04:42:53;5.80;;;4.33;;
39094;SDS011;24840;47.508;19.376;2023-04-03T04:45:19;4.47;;;4.03;;
39094;SDS011;24840;47.508;19.376;2023-04-03T04:47:45;6.97;;;3.97;;
39094;SDS011;24840;47.508;19.376;2023-04-03T04:50:11;4.97;;;4.00;;
39094;SDS011;24840;47.508;19.376;2023-04-03T04:52:37;5.00;;;4.40;;
39094;SDS011;24840;47.508;19.376;2023-04-03T04:55:04;5.33;;;4.17;;
39094;SDS011;24840;47.508;19.376;2023-04-03T04:57:30;5.67;;;4.97;;
39094;SDS011;24840;47.508;19.376;2023-04-03T04:59:56;3.90;;;3.50;;
39094;SDS011;24840;47.508;19.376;2023-04-03T05:02:21;5.33;;;4.80;;
39094;SDS011;24840;47.508;19.376;2023-04-03T05:04:47;7.03;;;4.47;;
39094;SDS011;24840;47.508;19.376;2023-04-03T05:07:15;5.97;;;4.47;;
39094;SDS011;24840;47.508;19.376;2023-04-03T05:09:41;5.20;;;4.33;;
39094;SDS011;24840;47.508;19.376;2023-04-03T05:12:07;5.73;;;3.97;;
39094;SDS011;24840;47.508;19.376;2023-04-03T05:14:33;5.37;;;4.17;;
39094;SDS011;24840;47.508;19.376;2023-04-03T05:16:58;5.83;;;4.23;;
39094;SDS011;24840;47.508;19.376;2023-04-03T05:19:24;5.53;;;4.03;;
39094;SDS011;24840;47.508;19.376;2023-04-03T05:21:50;3.93;;;3.20;;
39094;SDS011;24840;47.508;19.376;2023-04-03T05:24:16;5.23;;;4.53;;
39094;SDS011;24840;47.508;19.376;2023-04-03T05:26:42;4.33;;;3.80;;
39094;SDS011;24840;47.508;19.376;2023-04-03T05:29:08;5.00;;;4.33;;
39094;SDS011;24840;47.508;19.376;2023-04-03T05:31:35;4.63;;;4.00;;
39094;SDS011;24840;47.508;19.376;2023-04-03T05:34:00;4.60;;;3.87;;
39094;SDS011;24840;47.508;19.376;2023-04-03T05:36:26;6.80;;;4.20;;
39094;SDS011;24840;47.508;19.376;2023-04-03T05:38:52;4.57;;;3.87;;
39094;SDS011;24840;47.508;19.376;2023-04-03T05:41:18;5.10;;;4.37;;
39094;SDS011;24840;47.508;19.376;2023-04-03T05:43:45;5.53;;;4.10;;
39094;SDS011;24840;47.508;19.376;2023-04-03T05:46:12;4.63;;;4.13;;
39094;SDS011;24840;47.508;19.376;2023-04-03T05:48:40;5.90;;;3.83;;
39094;SDS011;24840;47.508;19.376;2023-04-03T05:51:06;4.07;;;3.10;;
39094;SDS011;24840;47.508;19.376;2023-04-03T05:53:33;3.87;;;3.43;;
39094;SDS011;24840;47.508;19.376;2023-04-03T05:56:02;4.93;;;4.27;;
39094;SDS011;24840;47.508;19.376;2023-04-03T05:58:28;4.60;;;3.80;;
39094;SDS011;24840;47.508;19.376;2023-04-03T06:00:54;8.13;;;4.10;;
39094;SDS011;24840;47.508;19.376;2023-04-03T06:03:20;11.03;;;4.00;;
39094;SDS011;24840;47.508;19.376;2023-04-03T06:05:46;4.97;;;3.80;;
39094;SDS011;24840;47.508;19.376;2023-04-03T06:08:11;6.10;;;3.97;;
39094;SDS011;24840;47.508;19.376;2023-04-03T06:10:37;6.27;;;3.43;;
39094;SDS011;24840;47.508;19.376;2023-04-03T06:13:04;7.27;;;3.50;;
39094;SDS011;24840;47.508;19.376;2023-04-03T06:15:31;4.00;;;3.07;;
39094;SDS011;24840;47.508;19.376;2023-04-03T06:17:56;4.77;;;3.87;;
39094;SDS011;24840;47.508;19.376;2023-04-03T06:20:22;4.30;;;3.10;;
39094;SDS011;24840;47.508;19.376;2023-04-03T06:22:48;3.90;;;3.30;;
39094;SDS011;24840;47.508;19.376;2023-04-03T06:25:14;4.50;;;3.23;;
39094;SDS011;24840;47.508;19.376;2023-04-03T06:27:42;3.90;;;3.23;;
39094;SDS011;24840;47.508;19.376;2023-04-03T06:30:08;3.43;;;3.00;;
39094;SDS011;24840;47.508;19.376;2023-04-03T06:32:34;4.40;;;4.00;;
39094;SDS011;24840;47.508;19.376;2023-04-03T06:35:00;4.20;;;3.43;;
39094;SDS011;24840;47.508;19.376;2023-04-03T06:37:25;4.33;;;3.33;;
39094;SDS011;24840;47.508;19.376;2023-04-03T06:39:53;3.97;;;3.53;;
39094;SDS011;24840;47.508;19.376;2023-04-03T06:42:19;15.13;;;4.77;;
39094;SDS011;24840;47.508;19.376;2023-04-03T06:44:45;4.20;;;3.20;;
39094;SDS011;24840;47.508;19.376;2023-04-03T06:47:12;6.67;;;3.27;;
39094;SDS011;24840;47.508;19.376;2023-04-03T06:49:39;2.97;;;2.67;;
39094;SDS011;24840;47.508;19.376;2023-04-03T06:52:05;7.33;;;3.67;;
39094;SDS011;24840;47.508;19.376;2023-04-03T06:54:31;4.90;;;3.83;;
39094;SDS011;24840;47.508;19.376;2023-04-03T06:56:57;4.33;;;3.37;;
39094;SDS011;24840;47.508;19.376;2023-04-03T06:59:23;4.27;;;3.87;;
39094;SDS011;24840;47.508;19.376;2023-04-03T07:01:49;4.87;;;3.43;;
39094;SDS011;24840;47.508;19.376;2023-04-03T07:04:15;16.10;;;4.63;;
39094;SDS011;24840;47.508;19.376;2023-04-03T07:06:41;5.67;;;4.30;;
39094;SDS011;24840;47.508;19.376;2023-04-03T07:09:08;6.25;;;3.67;;
39094;SDS011;24840;47.508;19.376;2023-04-03T07:11:34;4.83;;;3.30;;
39094;SDS011;24840;47.508;19.376;2023-04-03T07:14:01;3.47;;;2.70;;
39094;SDS011;24840;47.508;19.376;2023-04-03T07:16:28;3.00;;;2.53;;
39094;SDS011;24840;47.508;19.376;2023-04-03T07:18:55;2.63;;;2.20;;
39094;SDS011;24840;47.508;19.376;2023-04-03T07:21:22;5.55;;;2.50;;
39094;SDS011;24840;47.508;19.376;2023-04-03T07:23:48;3.03;;;1.98;;
39094;SDS011;24840;47.508;19.376;2023-04-03T07:26:14;2.63;;;2.10;;
39094;SDS011;24840;47.508;19.376;2023-04-03T07:28:40;2.58;;;1.80;;
39094;SDS011;24840;47.508;19.376;2023-04-03T07:31:07;3.30;;;2.08;;
39094;SDS011;24840;47.508;19.376;2023-04-03T07:33:38;4.57;;;2.28;;
39094;SDS011;24840;47.508;19.376;2023-04-03T07:36:06;2.78;;;2.08;;
39094;SDS011;24840;47.508;19.376;2023-04-03T07:38:32;10.55;;;5.57;;
39094;SDS011;24840;47.508;19.376;2023-04-03T07:41:00;5.55;;;2.58;;
39094;SDS011;24840;47.508;19.376;2023-04-03T07:43:26;11.50;;;8.98;;
39094;SDS011;24840;47.508;19.376;2023-04-03T07:45:52;6.55;;;5.70;;
39094;SDS011;24840;47.508;19.376;2023-04-03T07:48:23;3.95;;;2.47;;
39094;SDS011;24840;47.508;19.376;2023-04-03T07:50:50;1.80;;;1.45;;
39094;SDS011;24840;47.508;19.376;2023-04-03T07:53:16;2.10;;;1.42;;
39094;SDS011;24840;47.508;19.376;2023-04-03T07:55:42;2.08;;;1.52;;
39094;SDS011;24840;47.508;19.376;2023-04-03T07:58:11;2.55;;;1.35;;
39094;SDS011;24840;47.508;19.376;2023-04-03T08:00:39;2.35;;;1.73;;
39094;SDS011;24840;47.508;19.376;2023-04-03T08:03:06;2.25;;;1.40;;
39094;SDS011;24840;47.508;19.376;2023-04-03T08:05:37;3.33;;;1.60;;
39094;SDS011;24840;47.508;19.376;2023-04-03T08:08:05;2.70;;;1.87;;
39094;SDS011;24840;47.508;19.376;2023-04-03T08:10:32;1.95;;;1.38;;
39094;SDS011;24840;47.508;19.376;2023-04-03T08:12:58;2.70;;;1.85;;
39094;SDS011;24840;47.508;19.376;2023-04-03T08:15:23;4.35;;;1.42;;
39094;SDS011;24840;47.508;19.376;2023-04-03T08:17:49;3.33;;;1.77;;
39094;SDS011;24840;47.508;19.376;2023-04-03T08:20:15;2.63;;;1.90;;
39094;SDS011;24840;47.508;19.376;2023-04-03T08:22:42;2.88;;;1.63;;
39094;SDS011;24840;47.508;19.376;2023-04-03T08:25:08;3.78;;;2.17;;
39094;SDS011;24840;47.508;19.376;2023-04-03T08:27:34;2.30;;;1.70;;
39094;SDS011;24840;47.508;19.376;2023-04-03T08:30:00;2.13;;;1.48;;
39094;SDS011;24840;47.508;19.376;2023-04-03T08:32:26;1.85;;;1.33;;
39094;SDS011;24840;47.508;19.376;2023-04-03T08:34:52;1.83;;;1.27;;
39094;SDS011;24840;47.508;19.376;2023-04-03T08:37:18;2.45;;;1.60;;
39094;SDS011;24840;47.508;19.376;2023-04-03T08:39:44;3.58;;;1.30;;
39094;SDS011;24840;47.508;19.376;2023-04-03T08:45:10;2.42;;;1.95;;
39094;SDS011;24840;47.508;19.376;2023-04-03T08:47:52;3.55;;;1.70;;
39094;SDS011;24840;47.508;19.376;2023-04-03T08:50:26;3.13;;;1.63;;
39094;SDS011;24840;47.508;19.376;2023-04-03T08:52:57;2.80;;;1.77;;
39094;SDS011;24840;47.508;19.376;2023-04-03T08:58:02;2.42;;;1.30;;
39094;SDS011;24840;47.508;19.376;2023-04-03T09:03:34;1.85;;;0.82;;
39094;SDS011;24840;47.508;19.376;2023-04-03T09:06:04;1.45;;;0.80;;
39094;SDS011;24840;47.508;19.376;2023-04-03T09:08:47;2.03;;;1.00;;
39094;SDS011;24840;47.508;19.376;2023-04-03T09:11:52;1.55;;;1.08;;
39094;SDS011;24840;47.508;19.376;2023-04-03T09:17:03;0.90;;;0.60;;
39094;SDS011;24840;47.508;19.376;2023-04-03T09:20:02;1.05;;;0.45;;
39094;SDS011;24840;47.508;19.376;2023-04-03T09:22:27;2.45;;;1.55;;
39094;SDS011;24840;47.508;19.376;2023-04-03T09:25:02;2.53;;;1.95;;
39094;SDS011;24840;47.508;19.376;2023-04-03T09:27:38;1.17;;;0.60;;
39094;SDS011;24840;47.508;19.376;2023-04-03T09:30:03;1.85;;;1.40;;
39094;SDS011;24840;47.508;19.376;2023-04-03T09:32:33;1.25;;;0.70;;
39094;SDS011;24840;47.508;19.376;2023-04-03T09:35:04;0.77;;;0.52;;
39094;SDS011;24840;47.508;19.376;2023-04-03T09:37:40;1.40;;;0.57;;
39094;SDS011;24840;47.508;19.376;2023-04-03T09:42:55;1.48;;;0.80;;
39094;SDS011;24840;47.508;19.376;2023-04-03T09:45:32;0.47;;;0.38;;
39094;SDS011;24840;47.508;19.376;2023-04-03T09:48:06;2.67;;;1.58;;
39094;SDS011;24840;47.508;19.376;2023-04-03T09:50:41;6.70;;;3.15;;
39094;SDS011;24840;47.508;19.376;2023-04-03T09:56:01;2.22;;;1.75;;
39094;SDS011;24840;47.508;19.376;2023-04-03T10:01:36;2.22;;;1.25;;
39094;SDS011;24840;47.508;19.376;2023-04-03T10:04:04;2.90;;;1.03;;
39094;SDS011;24840;47.508;19.376;2023-04-03T10:06:31;7.18;;;4.72;;
39094;SDS011;24840;47.508;19.376;2023-04-03T10:09:22;20.05;;;1.83;;
39094;SDS011;24840;47.508;19.376;2023-04-03T10:12:08;3.28;;;1.55;;
39094;SDS011;24840;47.508;19.376;2023-04-03T10:14:56;1.30;;;0.90;;
39094;SDS011;24840;47.508;19.376;2023-04-03T10:22:47;1.92;;;1.17;;
39094;SDS011;24840;47.508;19.376;2023-04-03T10:31:29;68.10;;;5.75;;
39094;SDS011;24840;47.508;19.376;2023-04-03T10:37:01;3.40;;;0.70;;
39094;SDS011;24840;47.508;19.376;2023-04-03T10:45:27;1.30;;;0.85;;
39094;SDS011;24840;47.508;19.376;2023-04-03T10:53:11;1.92;;;1.27;;
39094;SDS011;24840;47.508;19.376;2023-04-03T10:56:01;2.55;;;1.27;;
39094;SDS011;24840;47.508;19.376;2023-04-03T10:58:35;2.22;;;1.25;;
39094;SDS011;24840;47.508;19.376;2023-04-03T11:01:09;1.00;;;0.70;;
39094;SDS011;24840;47.508;19.376;2023-04-03T11:03:44;2.47;;;1.30;;
39094;SDS011;24840;47.508;19.376;2023-04-03T11:06:15;3.63;;;2.30;;
39094;SDS011;24840;47.508;19.376;2023-04-03T11:11:51;4.95;;;2.70;;
39094;SDS011;24840;47.508;19.376;2023-04-03T11:14:29;1.63;;;1.05;;
39094;SDS011;24840;47.508;19.376;2023-04-03T11:19:36;1.30;;;0.63;;
39094;SDS011;24840;47.508;19.376;2023-04-03T11:22:09;1.25;;;0.80;;
39094;SDS011;24840;47.508;19.376;2023-04-03T11:24:41;2.28;;;1.20;;
39094;SDS011;24840;47.508;19.376;2023-04-03T11:27:17;0.85;;;0.75;;
39094;SDS011;24840;47.508;19.376;2023-04-03T11:29:47;1.35;;;0.80;;
39094;SDS011;24840;47.508;19.376;2023-04-03T11:32:26;2.05;;;0.85;;
39094;SDS011;24840;47.508;19.376;2023-04-03T11:35:10;1.13;;;0.70;;
39094;SDS011;24840;47.508;19.376;2023-04-03T11:37:44;2.03;;;0.70;;
39094;SDS011;24840;47.508;19.376;2023-04-03T11:42:47;1.37;;;0.90;;
39094;SDS011;24840;47.508;19.376;2023-04-03T11:47:49;2.00;;;1.13;;
39094;SDS011;24840;47.508;19.376;2023-04-03T11:50:30;2.42;;;1.20;;
39094;SDS011;24840;47.508;19.376;2023-04-03T11:52:57;1.50;;;1.13;;
39094;SDS011;24840;47.508;19.376;2023-04-03T12:13:40;2.22;;;1.10;;
39094;SDS011;24840;47.508;19.376;2023-04-03T12:21:13;2.20;;;0.70;;
39094;SDS011;24840;47.508;19.376;2023-04-03T12:35:03;2.42;;;0.47;;
39094;SDS011;24840;47.508;19.376;2023-04-03T12:45:30;0.82;;;0.57;;
39094;SDS011;24840;47.508;19.376;2023-04-03T12:48:15;0.50;;;0.20;;
39094;SDS011;24840;47.508;19.376;2023-04-03T12:50:43;4.70;;;1.13;;
39094;SDS011;24840;47.508;19.376;2023-04-03T12:55:43;55.83;;;7.00;;
39094;SDS011;24840;47.508;19.376;2023-04-03T13:00:58;69.40;;;6.72;;
39094;SDS011;24840;47.508;19.376;2023-04-03T13:03:33;5.22;;;0.57;;
39094;SDS011;24840;47.508;19.376;2023-04-03T13:06:02;17.50;;;2.80;;
39094;SDS011;24840;47.508;19.376;2023-04-03T13:08:29;53.15;;;4.43;;
39094;SDS011;24840;47.508;19.376;2023-04-03T13:11:02;19.50;;;1.90;;
39094;SDS011;24840;47.508;19.376;2023-04-03T13:13:38;57.03;;;4.55;;
39094;SDS011;24840;47.508;19.376;2023-04-03T13:16:08;4.95;;;1.20;;
39094;SDS011;24840;47.508;19.376;2023-04-03T13:18:36;16.73;;;2.53;;
39094;SDS011;24840;47.508;19.376;2023-04-03T13:23:29;4.85;;;0.65;;
39094;SDS011;24840;47.508;19.376;2023-04-03T13:25:56;0.98;;;0.52;;
39094;SDS011;24840;47.508;19.376;2023-04-03T13:28:27;2.93;;;0.97;;
39094;SDS011;24840;47.508;19.376;2023-04-03T13:30:55;1.98;;;0.73;;
39094;SDS011;24840;47.508;19.376;2023-04-03T13:33:26;7.45;;;0.98;;
39094;SDS011;24840;47.508;19.376;2023-04-03T13:35:55;1.10;;;0.50;;
39094;SDS011;24840;47.508;19.376;2023-04-03T13:38:26;1.33;;;0.57;;
39094;SDS011;24840;47.508;19.376;2023-04-03T13:40:58;1.85;;;0.40;;
39094;SDS011;24840;47.508;19.376;2023-04-03T13:43:28;2.63;;;1.40;;
39094;SDS011;24840;47.508;19.376;2023-04-03T13:48:42;0.60;;;0.40;;
39094;SDS011;24840;47.508;19.376;2023-04-03T13:53:58;1.30;;;0.40;;
39094;SDS011;24840;47.508;19.376;2023-04-03T13:56:33;1.25;;;0.68;;
39094;SDS011;24840;47.508;19.376;2023-04-03T13:59:19;1.73;;;0.93;;
39094;SDS011;24840;47.508;19.376;2023-04-03T14:02:09;0.95;;;0.60;;
39094;SDS011;24840;47.508;19.376;2023-04-03T14:07:15;2.35;;;0.50;;
39094;SDS011;24840;47.508;19.376;2023-04-03T14:09:43;1.10;;;0.50;;
39094;SDS011;24840;47.508;19.376;2023-04-03T14:12:14;0.85;;;0.40;;
39094;SDS011;24840;47.508;19.376;2023-04-03T14:15:03;0.63;;;0.30;;
39094;SDS011;24840;47.508;19.376;2023-04-03T14:17:40;0.90;;;0.45;;
39094;SDS011;24840;47.508;19.376;2023-04-03T14:20:10;3.65;;;1.17;;
39094;SDS011;24840;47.508;19.376;2023-04-03T14:22:40;0.80;;;0.40;;
39094;SDS011;24840;47.508;19.376;2023-04-03T14:25:06;0.43;;;0.40;;
39094;SDS011;24840;47.508;19.376;2023-04-03T14:27:34;1.02;;;0.70;;
39094;SDS011;24840;47.508;19.376;2023-04-03T14:30:05;4.72;;;0.68;;
39094;SDS011;24840;47.508;19.376;2023-04-03T14:32:43;0.63;;;0.43;;
39094;SDS011;24840;47.508;19.376;2023-04-03T14:35:09;1.13;;;0.50;;
39094;SDS011;24840;47.508;19.376;2023-04-03T14:37:36;6.40;;;0.65;;
39094;SDS011;24840;47.508;19.376;2023-04-03T14:40:03;1.33;;;0.38;;
39094;SDS011;24840;47.508;19.376;2023-04-03T14:42:31;2.00;;;0.90;;
39094;SDS011;24840;47.508;19.376;2023-04-03T14:44:59;1.05;;;0.57;;
39094;SDS011;24840;47.508;19.376;2023-04-03T14:47:27;1.35;;;1.00;;
39094;SDS011;24840;47.508;19.376;2023-04-03T14:49:54;0.98;;;0.50;;
39094;SDS011;24840;47.508;19.376;2023-04-03T14:52:23;2.00;;;0.50;;
39094;SDS011;24840;47.508;19.376;2023-04-03T14:54:54;5.95;;;1.33;;
39094;SDS011;24840;47.508;19.376;2023-04-03T14:57:21;8.52;;;0.93;;
39094;SDS011;24840;47.508;19.376;2023-04-03T14:59:49;2.08;;;1.38;;
39094;SDS011;24840;47.508;19.376;2023-04-03T15:02:35;1.88;;;0.73;;
39094;SDS011;24840;47.508;19.376;2023-04-03T15:05:03;1.10;;;0.63;;
39094;SDS011;24840;47.508;19.376;2023-04-03T15:07:32;1.25;;;0.55;;
39094;SDS011;24840;47.508;19.376;2023-04-03T15:10:02;1.30;;;0.70;;
39094;SDS011;24840;47.508;19.376;2023-04-03T15:12:40;1.75;;;0.88;;
39094;SDS011;24840;47.508;19.376;2023-04-03T15:15:07;1.38;;;0.80;;
39094;SDS011;24840;47.508;19.376;2023-04-03T15:17:33;1.27;;;0.63;;
39094;SDS011;24840;47.508;19.376;2023-04-03T15:20:01;2.30;;;1.63;;
39094;SDS011;24840;47.508;19.376;2023-04-03T15:22:28;0.98;;;0.70;;
39094;SDS011;24840;47.508;19.376;2023-04-03T15:24:53;2.38;;;2.08;;
39094;SDS011;24840;47.508;19.376;2023-04-03T15:27:19;2.25;;;1.70;;
39094;SDS011;24840;47.508;19.376;2023-04-03T15:29:45;1.27;;;0.60;;
39094;SDS011;24840;47.508;19.376;2023-04-03T15:32:11;3.17;;;0.65;;
39094;SDS011;24840;47.508;19.376;2023-04-03T15:34:37;2.08;;;1.70;;
39094;SDS011;24840;47.508;19.376;2023-04-03T15:37:03;2.13;;;1.58;;
39094;SDS011;24840;47.508;19.376;2023-04-03T15:39:30;2.45;;;1.63;;
39094;SDS011;24840;47.508;19.376;2023-04-03T15:41:56;2.38;;;1.67;;
39094;SDS011;24840;47.508;19.376;2023-04-03T15:44:24;3.67;;;1.92;;
39094;SDS011;24840;47.508;19.376;2023-04-03T15:46:50;2.95;;;1.70;;
39094;SDS011;24840;47.508;19.376;2023-04-03T15:49:17;4.57;;;1.95;;
39094;SDS011;24840;47.508;19.376;2023-04-03T15:51:44;3.00;;;1.77;;
39094;SDS011;24840;47.508;19.376;2023-04-03T15:54:10;5.85;;;1.92;;
39094;SDS011;24840;47.508;19.376;2023-04-03T15:56:36;3.13;;;2.03;;
39094;SDS011;24840;47.508;19.376;2023-04-03T15:59:02;7.18;;;2.17;;
39094;SDS011;24840;47.508;19.376;2023-04-03T16:01:28;6.22;;;2.60;;
39094;SDS011;24840;47.508;19.376;2023-04-03T16:03:54;4.63;;;2.40;;
39094;SDS011;24840;47.508;19.376;2023-04-03T16:06:20;8.15;;;2.10;;
39094;SDS011;24840;47.508;19.376;2023-04-03T16:08:46;4.35;;;2.25;;
39094;SDS011;24840;47.508;19.376;2023-04-03T16:11:14;9.88;;;2.30;;
39094;SDS011;24840;47.508;19.376;2023-04-03T16:13:40;4.78;;;3.03;;
39094;SDS011;24840;47.508;19.376;2023-04-03T16:16:07;5.55;;;3.35;;
39094;SDS011;24840;47.508;19.376;2023-04-03T16:18:33;5.85;;;3.97;;
39094;SDS011;24840;47.508;19.376;2023-04-03T16:21:00;10.10;;;3.08;;
39094;SDS011;24840;47.508;19.376;2023-04-03T16:23:26;3.95;;;1.95;;
39094;SDS011;24840;47.508;19.376;2023-04-03T16:25:52;3.92;;;2.42;;
39094;SDS011;24840;47.508;19.376;2023-04-03T16:28:17;7.70;;;4.65;;
39094;SDS011;24840;47.508;19.376;2023-04-03T16:30:44;3.97;;;2.80;;
39094;SDS011;24840;47.508;19.376;2023-04-03T16:33:11;3.70;;;1.88;;
39094;SDS011;24840;47.508;19.376;2023-04-03T16:35:37;2.20;;;1.30;;
39094;SDS011;24840;47.508;19.376;2023-04-03T16:38:04;3.00;;;1.80;;
39094;SDS011;24840;47.508;19.376;2023-04-03T16:40:30;4.03;;;1.67;;
39094;SDS011;24840;47.508;19.376;2023-04-03T16:42:56;3.83;;;2.13;;
39094;SDS011;24840;47.508;19.376;2023-04-03T16:45:22;5.50;;;3.63;;